sensor_id;sensor_type;location;lat;lon;timestamp;temperature;humidity
9179;DHT22;71287;48.414;11.478;2024-01-11T00:01:21;-4.50;99.90
9179;DHT22;71287;48.414;11.478;2024-01-11T00:03:49;-4.40;99.90
9179;DHT22;71287;48.414;11.478;2024-01-11T00:06:16;-4.40;99.90
9179;DHT22;71287;48.414;11.478;2024-01-11T00:08:43;-4.30;99.90
9179;DHT22;71287;48.414;11.478;2024-01-11T00:11:10;-4.30;99.90
9179;DHT22;71287;48.414;11.478;2024-01-11T00:13:37;-4.30;99.90
9179;DHT22;71287;48.414;11.478;2024-01-11T00:16:04;-4.20;99.90
9179;DHT22;71287;48.414;11.478;2024-01-11T00:18:31;-4.30;99.90
9179;DHT22;71287;48.414;11.478;2024-01-11T00:20:59;-4.30;99.90
9179;DHT22;71287;48.414;11.478;2024-01-11T00:23:26;-4.40;99.90
9179;DHT22;71287;48.414;11.478;2024-01-11T00:25:53;-4.40;99.90
9179;DHT22;71287;48.414;11.478;2024-01-11T00:28:19;-4.40;99.90
9179;DHT22;71287;48.414;11.478;2024-01-11T00:30:46;-4.30;99.90
9179;DHT22;71287;48.414;11.478;2024-01-11T00:33:13;-4.30;99.90
9179;DHT22;71287;48.414;11.478;2024-01-11T00:35:40;-4.30;99.90
9179;DHT22;71287;48.414;11.478;2024-01-11T00:38:08;-4.40;99.90
9179;DHT22;71287;48.414;11.478;2024-01-11T00:40:34;-4.40;99.90
9179;DHT22;71287;48.414;11.478;2024-01-11T00:43:01;-4.40;99.90
9179;DHT22;71287;48.414;11.478;2024-01-11T00:45:28;-4.40;99.90
9179;DHT22;71287;48.414;11.478;2024-01-11T00:47:54;-4.40;99.90
9179;DHT22;71287;48.414;11.478;2024-01-11T00:50:21;-4.50;99.90
9179;DHT22;71287;48.414;11.478;2024-01-11T00:52:48;-4.50;99.90
9179;DHT22;71287;48.414;11.478;2024-01-11T00:55:16;-4.60;99.90
9179;DHT22;71287;48.414;11.478;2024-01-11T00:57:43;-4.70;99.90
9179;DHT22;71287;48.414;11.478;2024-01-11T01:00:11;-4.70;99.90
9179;DHT22;71287;48.414;11.478;2024-01-11T01:02:40;-4.80;99.90
9179;DHT22;71287;48.414;11.478;2024-01-11T01:05:07;-4.80;99.90
9179;DHT22;71287;48.414;11.478;2024-01-11T01:07:34;-4.80;99.90
9179;DHT22;71287;48.414;11.478;2024-01-11T01:10:01;-4.90;99.90
9179;DHT22;71287;48.414;11.478;2024-01-11T01:12:29;-4.90;99.90
9179;DHT22;71287;48.414;11.478;2024-01-11T01:14:56;-4.90;99.90
9179;DHT22;71287;48.414;11.478;2024-01-11T01:17:23;-4.90;99.90
9179;DHT22;71287;48.414;11.478;2024-01-11T01:19:49;-4.90;99.90
9179;DHT22;71287;48.414;11.478;2024-01-11T01:22:16;-4.90;99.90
9179;DHT22;71287;48.414;11.478;2024-01-11T01:24:42;-4.90;99.90
9179;DHT22;71287;48.414;11.478;2024-01-11T01:27:08;-4.90;99.90
9179;DHT22;71287;48.414;11.478;2024-01-11T01:29:36;-4.90;99.90
9179;DHT22;71287;48.414;11.478;2024-01-11T01:32:04;-4.90;99.90
9179;DHT22;71287;48.414;11.478;2024-01-11T01:34:31;-4.90;99.90
9179;DHT22;71287;48.414;11.478;2024-01-11T01:36:57;-4.90;99.90
9179;DHT22;71287;48.414;11.478;2024-01-11T01:39:24;-4.90;99.90
9179;DHT22;71287;48.414;11.478;2024-01-11T01:41:51;-4.90;99.90
9179;DHT22;71287;48.414;11.478;2024-01-11T01:44:18;-4.90;99.90
9179;DHT22;71287;48.414;11.478;2024-01-11T01:46:47;-4.90;99.90
9179;DHT22;71287;48.414;11.478;2024-01-11T01:49:14;-4.90;99.90
9179;DHT22;71287;48.414;11.478;2024-01-11T01:51:43;-5.00;99.90
9179;DHT22;71287;48.414;11.478;2024-01-11T01:54:10;-5.00;99.90
9179;DHT22;71287;48.414;11.478;2024-01-11T01:56:37;-5.10;99.90
9179;DHT22;71287;48.414;11.478;2024-01-11T01:59:04;-5.10;99.90
9179;DHT22;71287;48.414;11.478;2024-01-11T02:01:31;-5.10;99.90
9179;DHT22;71287;48.414;11.478;2024-01-11T02:04:00;-5.10;99.90
9179;DHT22;71287;48.414;11.478;2024-01-11T02:06:28;-5.00;99.90
9179;DHT22;71287;48.414;11.478;2024-01-11T02:08:59;-5.00;99.90
9179;DHT22;71287;48.414;11.478;2024-01-11T02:11:27;-5.10;99.90
9179;DHT22;71287;48.414;11.478;2024-01-11T02:13:55;-5.10;99.90
9179;DHT22;71287;48.414;11.478;2024-01-11T02:16:23;-5.10;99.90
9179;DHT22;71287;48.414;11.478;2024-01-11T02:18:50;-5.10;99.90
9179;DHT22;71287;48.414;11.478;2024-01-11T02:21:18;-5.10;99.90
9179;DHT22;71287;48.414;11.478;2024-01-11T02:23:56;-5.10;99.90
9179;DHT22;71287;48.414;11.478;2024-01-11T02:26:23;-5.10;99.90
9179;DHT22;71287;48.414;11.478;2024-01-11T02:28:49;-5.00;99.90
9179;DHT22;71287;48.414;11.478;2024-01-11T02:31:15;-5.00;99.90
9179;DHT22;71287;48.414;11.478;2024-01-11T02:33:42;-5.00;99.90
9179;DHT22;71287;48.414;11.478;2024-01-11T02:36:10;-5.00;99.90
9179;DHT22;71287;48.414;11.478;2024-01-11T02:38:38;-5.00;99.90
9179;DHT22;71287;48.414;11.478;2024-01-11T02:41:07;-4.90;99.90
9179;DHT22;71287;48.414;11.478;2024-01-11T02:43:34;-4.90;99.90
9179;DHT22;71287;48.414;11.478;2024-01-11T02:46:01;-4.90;99.90
9179;DHT22;71287;48.414;11.478;2024-01-11T02:48:28;-4.90;99.90
9179;DHT22;71287;48.414;11.478;2024-01-11T02:50:56;-4.80;99.90
9179;DHT22;71287;48.414;11.478;2024-01-11T02:53:22;-4.80;99.90
9179;DHT22;71287;48.414;11.478;2024-01-11T02:55:49;-4.80;99.90
9179;DHT22;71287;48.414;11.478;2024-01-11T02:58:18;-4.80;99.90
9179;DHT22;71287;48.414;11.478;2024-01-11T03:00:45;-4.80;99.90
9179;DHT22;71287;48.414;11.478;2024-01-11T03:03:12;-4.80;99.90
9179;DHT22;71287;48.414;11.478;2024-01-11T03:05:39;-4.80;99.90
9179;DHT22;71287;48.414;11.478;2024-01-11T03:08:06;-4.80;99.90
9179;DHT22;71287;48.414;11.478;2024-01-11T03:10:33;-4.80;99.90
9179;DHT22;71287;48.414;11.478;2024-01-11T03:13:00;-4.80;99.90
9179;DHT22;71287;48.414;11.478;2024-01-11T03:15:28;-4.80;99.90
9179;DHT22;71287;48.414;11.478;2024-01-11T03:17:55;-4.80;99.90
9179;DHT22;71287;48.414;11.478;2024-01-11T03:20:21;-4.80;99.90
9179;DHT22;71287;48.414;11.478;2024-01-11T03:22:50;-4.70;99.90
9179;DHT22;71287;48.414;11.478;2024-01-11T03:25:17;-4.70;99.90
9179;DHT22;71287;48.414;11.478;2024-01-11T03:27:44;-4.70;99.90
9179;DHT22;71287;48.414;11.478;2024-01-11T03:30:12;-4.60;99.90
9179;DHT22;71287;48.414;11.478;2024-01-11T03:32:40;-4.60;99.90
9179;DHT22;71287;48.414;11.478;2024-01-11T03:35:07;-4.60;99.90
9179;DHT22;71287;48.414;11.478;2024-01-11T03:37:34;-4.50;99.90
9179;DHT22;71287;48.414;11.478;2024-01-11T03:40:02;-4.50;99.90
9179;DHT22;71287;48.414;11.478;2024-01-11T03:42:29;-4.50;99.90
9179;DHT22;71287;48.414;11.478;2024-01-11T03:44:56;-4.40;99.90
9179;DHT22;71287;48.414;11.478;2024-01-11T03:47:23;-4.40;99.90
9179;DHT22;71287;48.414;11.478;2024-01-11T03:49:51;-4.30;99.90
9179;DHT22;71287;48.414;11.478;2024-01-11T03:52:18;-4.30;99.90
9179;DHT22;71287;48.414;11.478;2024-01-11T03:54:45;-4.30;99.90
9179;DHT22;71287;48.414;11.478;2024-01-11T03:57:11;-4.30;99.90
9179;DHT22;71287;48.414;11.478;2024-01-11T03:59:38;-4.20;99.90
9179;DHT22;71287;48.414;11.478;2024-01-11T04:02:06;-4.20;99.90
9179;DHT22;71287;48.414;11.478;2024-01-11T04:04:33;-4.20;99.90
9179;DHT22;71287;48.414;11.478;2024-01-11T04:07:01;-4.30;99.90
9179;DHT22;71287;48.414;11.478;2024-01-11T04:09:28;-4.30;99.90
9179;DHT22;71287;48.414;11.478;2024-01-11T04:11:55;-4.30;99.90
9179;DHT22;71287;48.414;11.478;2024-01-11T04:14:21;-4.30;99.90
9179;DHT22;71287;48.414;11.478;2024-01-11T04:16:48;-4.30;99.90
9179;DHT22;71287;48.414;11.478;2024-01-11T04:19:15;-4.20;99.90
9179;DHT22;71287;48.414;11.478;2024-01-11T04:21:41;-4.20;99.90
9179;DHT22;71287;48.414;11.478;2024-01-11T04:24:10;-4.20;99.90
9179;DHT22;71287;48.414;11.478;2024-01-11T04:26:36;-4.20;99.90
9179;DHT22;71287;48.414;11.478;2024-01-11T04:29:03;-4.20;99.90
9179;DHT22;71287;48.414;11.478;2024-01-11T04:31:30;-4.20;99.90
9179;DHT22;71287;48.414;11.478;2024-01-11T04:33:56;-4.20;99.90
9179;DHT22;71287;48.414;11.478;2024-01-11T04:36:23;-4.20;99.90
9179;DHT22;71287;48.414;11.478;2024-01-11T04:38:50;-4.30;99.90
9179;DHT22;71287;48.414;11.478;2024-01-11T04:41:18;-4.40;99.90
9179;DHT22;71287;48.414;11.478;2024-01-11T04:43:45;-4.50;99.90
9179;DHT22;71287;48.414;11.478;2024-01-11T04:46:15;-4.50;99.90
9179;DHT22;71287;48.414;11.478;2024-01-11T04:48:43;-4.50;99.90
9179;DHT22;71287;48.414;11.478;2024-01-11T04:51:10;-4.50;99.90
9179;DHT22;71287;48.414;11.478;2024-01-11T04:53:38;-4.50;99.90
9179;DHT22;71287;48.414;11.478;2024-01-11T04:56:06;-4.50;99.90
9179;DHT22;71287;48.414;11.478;2024-01-11T04:58:35;-4.50;99.90
9179;DHT22;71287;48.414;11.478;2024-01-11T05:01:03;-4.50;99.90
9179;DHT22;71287;48.414;11.478;2024-01-11T05:03:30;-4.50;99.90
9179;DHT22;71287;48.414;11.478;2024-01-11T05:05:57;-4.50;99.90
9179;DHT22;71287;48.414;11.478;2024-01-11T05:08:24;-4.50;99.90
9179;DHT22;71287;48.414;11.478;2024-01-11T05:10:51;-4.50;99.90
9179;DHT22;71287;48.414;11.478;2024-01-11T05:13:18;-4.40;99.90
9179;DHT22;71287;48.414;11.478;2024-01-11T05:15:46;-4.40;99.90
9179;DHT22;71287;48.414;11.478;2024-01-11T05:18:13;-4.40;99.90
9179;DHT22;71287;48.414;11.478;2024-01-11T05:20:40;-4.50;99.90
9179;DHT22;71287;48.414;11.478;2024-01-11T05:23:07;-4.60;99.90
9179;DHT22;71287;48.414;11.478;2024-01-11T05:25:34;-4.60;99.90
9179;DHT22;71287;48.414;11.478;2024-01-11T05:28:02;-4.60;99.90
9179;DHT22;71287;48.414;11.478;2024-01-11T05:30:29;-4.70;99.90
9179;DHT22;71287;48.414;11.478;2024-01-11T05:32:57;-4.60;99.90
9179;DHT22;71287;48.414;11.478;2024-01-11T05:35:25;-4.60;99.90
9179;DHT22;71287;48.414;11.478;2024-01-11T05:37:52;-4.60;99.90
9179;DHT22;71287;48.414;11.478;2024-01-11T05:40:20;-4.50;99.90
9179;DHT22;71287;48.414;11.478;2024-01-11T05:42:47;-4.50;99.90
9179;DHT22;71287;48.414;11.478;2024-01-11T05:45:14;-4.50;99.90
9179;DHT22;71287;48.414;11.478;2024-01-11T05:47:42;-4.50;99.90
9179;DHT22;71287;48.414;11.478;2024-01-11T05:50:10;-4.60;99.90
9179;DHT22;71287;48.414;11.478;2024-01-11T05:52:37;-4.60;99.90
9179;DHT22;71287;48.414;11.478;2024-01-11T05:55:04;-4.60;99.90
9179;DHT22;71287;48.414;11.478;2024-01-11T05:57:31;-4.50;99.90
9179;DHT22;71287;48.414;11.478;2024-01-11T05:59:58;-4.50;99.90
9179;DHT22;71287;48.414;11.478;2024-01-11T06:02:25;-4.50;99.90
9179;DHT22;71287;48.414;11.478;2024-01-11T06:04:51;-4.40;99.90
9179;DHT22;71287;48.414;11.478;2024-01-11T06:07:19;-4.40;99.90
9179;DHT22;71287;48.414;11.478;2024-01-11T06:09:46;-4.40;99.90
9179;DHT22;71287;48.414;11.478;2024-01-11T06:12:13;-4.40;99.90
9179;DHT22;71287;48.414;11.478;2024-01-11T06:14:40;-4.40;99.90
9179;DHT22;71287;48.414;11.478;2024-01-11T06:17:07;-4.40;99.90
9179;DHT22;71287;48.414;11.478;2024-01-11T06:19:36;-4.40;99.90
9179;DHT22;71287;48.414;11.478;2024-01-11T06:22:03;-4.40;99.90
9179;DHT22;71287;48.414;11.478;2024-01-11T06:24:31;-4.40;99.90
9179;DHT22;71287;48.414;11.478;2024-01-11T06:26:58;-4.30;99.90
9179;DHT22;71287;48.414;11.478;2024-01-11T06:29:25;-4.30;99.90
9179;DHT22;71287;48.414;11.478;2024-01-11T06:31:52;-4.40;99.90
9179;DHT22;71287;48.414;11.478;2024-01-11T06:34:19;-4.40;99.90
9179;DHT22;71287;48.414;11.478;2024-01-11T06:36:45;-4.40;99.90
9179;DHT22;71287;48.414;11.478;2024-01-11T06:39:12;-4.50;99.90
9179;DHT22;71287;48.414;11.478;2024-01-11T06:41:41;-4.50;99.90
9179;DHT22;71287;48.414;11.478;2024-01-11T06:44:08;-4.50;99.90
9179;DHT22;71287;48.414;11.478;2024-01-11T06:46:35;-4.50;99.90
9179;DHT22;71287;48.414;11.478;2024-01-11T06:49:04;-4.50;99.90
9179;DHT22;71287;48.414;11.478;2024-01-11T06:51:31;-4.50;99.90
9179;DHT22;71287;48.414;11.478;2024-01-11T06:53:59;-4.60;99.90
9179;DHT22;71287;48.414;11.478;2024-01-11T06:56:27;-4.60;99.90
9179;DHT22;71287;48.414;11.478;2024-01-11T06:58:55;-4.70;99.90
9179;DHT22;71287;48.414;11.478;2024-01-11T07:01:21;-4.60;99.90
9179;DHT22;71287;48.414;11.478;2024-01-11T07:03:48;-4.60;99.90
9179;DHT22;71287;48.414;11.478;2024-01-11T07:06:16;-4.60;99.90
9179;DHT22;71287;48.414;11.478;2024-01-11T07:08:43;-4.70;99.90
9179;DHT22;71287;48.414;11.478;2024-01-11T07:11:10;-4.70;99.90
9179;DHT22;71287;48.414;11.478;2024-01-11T07:13:36;-4.70;99.90
9179;DHT22;71287;48.414;11.478;2024-01-11T07:16:05;-4.70;99.90
9179;DHT22;71287;48.414;11.478;2024-01-11T07:18:32;-4.70;99.90
9179;DHT22;71287;48.414;11.478;2024-01-11T07:20:59;-4.70;99.90
9179;DHT22;71287;48.414;11.478;2024-01-11T07:23:26;-4.70;99.90
9179;DHT22;71287;48.414;11.478;2024-01-11T07:25:53;-4.80;99.90
9179;DHT22;71287;48.414;11.478;2024-01-11T07:28:20;-4.80;99.90
9179;DHT22;71287;48.414;11.478;2024-01-11T07:30:50;-4.80;99.90
9179;DHT22;71287;48.414;11.478;2024-01-11T07:33:19;-4.80;99.90
9179;DHT22;71287;48.414;11.478;2024-01-11T07:35:46;-4.70;99.90
9179;DHT22;71287;48.414;11.478;2024-01-11T07:38:12;-4.60;99.90
9179;DHT22;71287;48.414;11.478;2024-01-11T07:40:39;-4.50;99.90
9179;DHT22;71287;48.414;11.478;2024-01-11T07:43:06;-4.40;99.90
9179;DHT22;71287;48.414;11.478;2024-01-11T07:45:33;-4.40;99.90
9179;DHT22;71287;48.414;11.478;2024-01-11T07:47:59;-4.40;99.90
9179;DHT22;71287;48.414;11.478;2024-01-11T07:50:30;-4.40;99.90
9179;DHT22;71287;48.414;11.478;2024-01-11T07:52:56;-4.40;99.90
9179;DHT22;71287;48.414;11.478;2024-01-11T07:55:23;-4.50;99.90
9179;DHT22;71287;48.414;11.478;2024-01-11T07:57:50;-4.50;99.90
9179;DHT22;71287;48.414;11.478;2024-01-11T08:00:17;-4.50;99.90
9179;DHT22;71287;48.414;11.478;2024-01-11T08:02:43;-4.40;99.90
9179;DHT22;71287;48.414;11.478;2024-01-11T08:05:11;-4.40;99.90
9179;DHT22;71287;48.414;11.478;2024-01-11T08:07:39;-4.40;99.90
9179;DHT22;71287;48.414;11.478;2024-01-11T08:10:08;-4.30;99.90
9179;DHT22;71287;48.414;11.478;2024-01-11T08:12:35;-4.20;99.90
9179;DHT22;71287;48.414;11.478;2024-01-11T08:15:02;-4.20;99.90
9179;DHT22;71287;48.414;11.478;2024-01-11T08:17:29;-4.20;99.90
9179;DHT22;71287;48.414;11.478;2024-01-11T08:19:56;-4.10;99.90
9179;DHT22;71287;48.414;11.478;2024-01-11T08:22:23;-4.00;99.90
9179;DHT22;71287;48.414;11.478;2024-01-11T08:24:51;-3.90;99.90
9179;DHT22;71287;48.414;11.478;2024-01-11T08:27:18;-3.80;99.90
9179;DHT22;71287;48.414;11.478;2024-01-11T08:29:44;-3.80;99.90
9179;DHT22;71287;48.414;11.478;2024-01-11T08:32:12;-3.70;99.90
9179;DHT22;71287;48.414;11.478;2024-01-11T08:34:39;-3.70;99.90
9179;DHT22;71287;48.414;11.478;2024-01-11T08:37:05;-3.60;99.90
9179;DHT22;71287;48.414;11.478;2024-01-11T08:39:32;-3.60;99.90
9179;DHT22;71287;48.414;11.478;2024-01-11T08:42:00;-3.40;99.90
9179;DHT22;71287;48.414;11.478;2024-01-11T08:44:27;-3.20;99.90
9179;DHT22;71287;48.414;11.478;2024-01-11T08:46:55;-3.10;99.90
9179;DHT22;71287;48.414;11.478;2024-01-11T08:49:22;-3.00;99.90
9179;DHT22;71287;48.414;11.478;2024-01-11T08:51:50;-3.00;99.90
9179;DHT22;71287;48.414;11.478;2024-01-11T08:54:17;-3.00;99.90
9179;DHT22;71287;48.414;11.478;2024-01-11T08:56:46;-3.00;99.90
9179;DHT22;71287;48.414;11.478;2024-01-11T08:59:14;-2.90;99.90
9179;DHT22;71287;48.414;11.478;2024-01-11T09:01:41;-2.80;99.90
9179;DHT22;71287;48.414;11.478;2024-01-11T09:04:07;-2.60;99.90
9179;DHT22;71287;48.414;11.478;2024-01-11T09:06:34;-2.50;99.90
9179;DHT22;71287;48.414;11.478;2024-01-11T09:09:01;-2.40;99.90
9179;DHT22;71287;48.414;11.478;2024-01-11T09:11:28;-2.20;99.90
9179;DHT22;71287;48.414;11.478;2024-01-11T09:13:55;-2.10;99.90
9179;DHT22;71287;48.414;11.478;2024-01-11T09:16:23;-2.00;99.90
9179;DHT22;71287;48.414;11.478;2024-01-11T09:18:50;-1.90;99.90
9179;DHT22;71287;48.414;11.478;2024-01-11T09:21:17;-1.80;99.90
9179;DHT22;71287;48.414;11.478;2024-01-11T09:23:44;-1.70;99.90
9179;DHT22;71287;48.414;11.478;2024-01-11T09:26:12;-1.60;99.90
9179;DHT22;71287;48.414;11.478;2024-01-11T09:28:39;-1.40;99.90
9179;DHT22;71287;48.414;11.478;2024-01-11T09:31:05;-1.30;99.90
9179;DHT22;71287;48.414;11.478;2024-01-11T09:33:34;-1.10;99.90
9179;DHT22;71287;48.414;11.478;2024-01-11T09:36:00;-1.00;99.90
9179;DHT22;71287;48.414;11.478;2024-01-11T09:38:28;-1.00;99.90
9179;DHT22;71287;48.414;11.478;2024-01-11T09:41:03;-1.00;99.90
9179;DHT22;71287;48.414;11.478;2024-01-11T09:43:34;-1.00;99.90
9179;DHT22;71287;48.414;11.478;2024-01-11T09:46:03;-0.90;99.90
9179;DHT22;71287;48.414;11.478;2024-01-11T09:48:34;-0.80;99.90
9179;DHT22;71287;48.414;11.478;2024-01-11T09:51:01;-0.60;99.90
9179;DHT22;71287;48.414;11.478;2024-01-11T09:53:31;-0.50;99.90
9179;DHT22;71287;48.414;11.478;2024-01-11T09:55:59;-0.50;99.90
9179;DHT22;71287;48.414;11.478;2024-01-11T09:58:25;-0.50;99.90
9179;DHT22;71287;48.414;11.478;2024-01-11T10:00:54;-0.40;99.90
9179;DHT22;71287;48.414;11.478;2024-01-11T10:03:22;-0.30;99.90
9179;DHT22;71287;48.414;11.478;2024-01-11T10:05:51;-0.20;99.90
9179;DHT22;71287;48.414;11.478;2024-01-11T10:08:19;-0.20;99.90
9179;DHT22;71287;48.414;11.478;2024-01-11T10:10:47;-0.20;99.90
9179;DHT22;71287;48.414;11.478;2024-01-11T10:13:14;-0.30;99.90
9179;DHT22;71287;48.414;11.478;2024-01-11T10:15:41;-0.30;99.90
9179;DHT22;71287;48.414;11.478;2024-01-11T10:18:08;-0.30;99.90
9179;DHT22;71287;48.414;11.478;2024-01-11T10:20:35;-0.40;99.90
9179;DHT22;71287;48.414;11.478;2024-01-11T10:23:03;-0.40;99.90
9179;DHT22;71287;48.414;11.478;2024-01-11T10:25:30;-0.40;99.90
9179;DHT22;71287;48.414;11.478;2024-01-11T10:27:58;-0.30;99.90
9179;DHT22;71287;48.414;11.478;2024-01-11T10:30:25;-0.30;99.90
9179;DHT22;71287;48.414;11.478;2024-01-11T10:32:51;-0.20;99.90
9179;DHT22;71287;48.414;11.478;2024-01-11T10:35:18;-0.20;99.90
9179;DHT22;71287;48.414;11.478;2024-01-11T10:37:50;-0.30;99.90
9179;DHT22;71287;48.414;11.478;2024-01-11T10:40:20;-0.30;99.90
9179;DHT22;71287;48.414;11.478;2024-01-11T10:42:51;-0.20;99.90
9179;DHT22;71287;48.414;11.478;2024-01-11T10:45:20;-0.10;99.90
9179;DHT22;71287;48.414;11.478;2024-01-11T10:47:53;0.00;99.90
9179;DHT22;71287;48.414;11.478;2024-01-11T10:50:23;0.00;99.90
9179;DHT22;71287;48.414;11.478;2024-01-11T10:53:03;0.10;99.90
9179;DHT22;71287;48.414;11.478;2024-01-11T10:55:33;0.10;99.90
9179;DHT22;71287;48.414;11.478;2024-01-11T10:58:00;0.10;99.90
9179;DHT22;71287;48.414;11.478;2024-01-11T11:00:28;0.10;99.90
9179;DHT22;71287;48.414;11.478;2024-01-11T11:02:55;0.00;99.90
9179;DHT22;71287;48.414;11.478;2024-01-11T11:05:22;-0.10;99.90
9179;DHT22;71287;48.414;11.478;2024-01-11T11:07:50;-0.10;99.90
9179;DHT22;71287;48.414;11.478;2024-01-11T11:10:19;-0.20;99.90
9179;DHT22;71287;48.414;11.478;2024-01-11T11:12:49;-0.30;99.90
9179;DHT22;71287;48.414;11.478;2024-01-11T11:15:15;-0.40;99.90
9179;DHT22;71287;48.414;11.478;2024-01-11T11:17:43;-0.50;99.90
9179;DHT22;71287;48.414;11.478;2024-01-11T11:20:11;-0.40;99.90
9179;DHT22;71287;48.414;11.478;2024-01-11T11:22:40;-0.40;99.90
9179;DHT22;71287;48.414;11.478;2024-01-11T11:25:08;-0.40;99.90
9179;DHT22;71287;48.414;11.478;2024-01-11T11:27:36;-0.30;99.90
9179;DHT22;71287;48.414;11.478;2024-01-11T11:30:05;-0.30;99.90
9179;DHT22;71287;48.414;11.478;2024-01-11T11:32:35;-0.30;99.90
9179;DHT22;71287;48.414;11.478;2024-01-11T11:35:03;-0.30;99.90
9179;DHT22;71287;48.414;11.478;2024-01-11T11:37:30;-0.20;99.90
9179;DHT22;71287;48.414;11.478;2024-01-11T11:39:57;-0.20;99.90
9179;DHT22;71287;48.414;11.478;2024-01-11T11:42:25;-0.20;99.90
9179;DHT22;71287;48.414;11.478;2024-01-11T11:44:51;-0.20;99.90
9179;DHT22;71287;48.414;11.478;2024-01-11T11:47:21;-0.20;99.90
9179;DHT22;71287;48.414;11.478;2024-01-11T11:49:58;-0.20;99.90
9179;DHT22;71287;48.414;11.478;2024-01-11T11:52:30;-0.10;99.90
9179;DHT22;71287;48.414;11.478;2024-01-11T11:54:59;-0.20;99.90
9179;DHT22;71287;48.414;11.478;2024-01-11T11:57:26;-0.20;99.90
9179;DHT22;71287;48.414;11.478;2024-01-11T11:59:54;-0.20;99.90
9179;DHT22;71287;48.414;11.478;2024-01-11T12:02:25;-0.10;99.90
9179;DHT22;71287;48.414;11.478;2024-01-11T12:04:52;-0.10;99.90
9179;DHT22;71287;48.414;11.478;2024-01-11T12:07:20;0.00;99.90
9179;DHT22;71287;48.414;11.478;2024-01-11T12:09:48;0.10;99.90
9179;DHT22;71287;48.414;11.478;2024-01-11T12:12:15;0.10;99.90
9179;DHT22;71287;48.414;11.478;2024-01-11T12:14:43;0.10;99.90
9179;DHT22;71287;48.414;11.478;2024-01-11T12:17:11;0.10;99.90
9179;DHT22;71287;48.414;11.478;2024-01-11T12:19:39;0.10;99.90
9179;DHT22;71287;48.414;11.478;2024-01-11T12:22:06;0.10;99.90
9179;DHT22;71287;48.414;11.478;2024-01-11T12:24:33;0.20;99.90
9179;DHT22;71287;48.414;11.478;2024-01-11T12:27:00;0.20;99.90
9179;DHT22;71287;48.414;11.478;2024-01-11T12:29:28;0.10;99.90
9179;DHT22;71287;48.414;11.478;2024-01-11T12:31:56;0.10;99.90
9179;DHT22;71287;48.414;11.478;2024-01-11T12:34:24;0.20;99.90
9179;DHT22;71287;48.414;11.478;2024-01-11T12:36:53;0.20;99.90
9179;DHT22;71287;48.414;11.478;2024-01-11T12:39:20;0.30;99.90
9179;DHT22;71287;48.414;11.478;2024-01-11T12:41:49;0.20;99.90
9179;DHT22;71287;48.414;11.478;2024-01-11T12:44:17;0.20;99.90
9179;DHT22;71287;48.414;11.478;2024-01-11T12:46:47;0.20;99.90
9179;DHT22;71287;48.414;11.478;2024-01-11T12:49:14;0.20;99.90
9179;DHT22;71287;48.414;11.478;2024-01-11T12:51:41;0.30;99.90
9179;DHT22;71287;48.414;11.478;2024-01-11T12:54:12;0.20;99.90
9179;DHT22;71287;48.414;11.478;2024-01-11T12:56:43;0.20;99.90
9179;DHT22;71287;48.414;11.478;2024-01-11T12:59:10;0.20;99.90
9179;DHT22;71287;48.414;11.478;2024-01-11T13:01:38;0.20;99.90
9179;DHT22;71287;48.414;11.478;2024-01-11T13:04:05;0.20;99.90
9179;DHT22;71287;48.414;11.478;2024-01-11T13:06:33;0.10;99.90
9179;DHT22;71287;48.414;11.478;2024-01-11T13:09:01;0.10;99.90
9179;DHT22;71287;48.414;11.478;2024-01-11T13:11:30;0.10;99.90
9179;DHT22;71287;48.414;11.478;2024-01-11T13:13:58;0.00;99.90
9179;DHT22;71287;48.414;11.478;2024-01-11T13:16:26;0.00;99.90
9179;DHT22;71287;48.414;11.478;2024-01-11T13:18:53;0.00;99.90
9179;DHT22;71287;48.414;11.478;2024-01-11T13:21:20;0.00;99.90
9179;DHT22;71287;48.414;11.478;2024-01-11T13:23:46;0.10;99.90
9179;DHT22;71287;48.414;11.478;2024-01-11T13:26:13;0.20;99.90
9179;DHT22;71287;48.414;11.478;2024-01-11T13:28:42;0.20;99.90
9179;DHT22;71287;48.414;11.478;2024-01-11T13:31:08;0.20;99.90
9179;DHT22;71287;48.414;11.478;2024-01-11T13:33:37;0.20;99.90
9179;DHT22;71287;48.414;11.478;2024-01-11T13:36:05;0.20;99.90
9179;DHT22;71287;48.414;11.478;2024-01-11T13:38:33;0.20;99.90
9179;DHT22;71287;48.414;11.478;2024-01-11T13:40:59;0.00;99.90
9179;DHT22;71287;48.414;11.478;2024-01-11T13:43:26;-0.10;99.90
9179;DHT22;71287;48.414;11.478;2024-01-11T13:45:54;-0.20;99.90
9179;DHT22;71287;48.414;11.478;2024-01-11T13:48:21;-0.20;99.90
9179;DHT22;71287;48.414;11.478;2024-01-11T13:50:48;-0.30;99.90
9179;DHT22;71287;48.414;11.478;2024-01-11T13:53:15;-0.40;99.90
9179;DHT22;71287;48.414;11.478;2024-01-11T13:55:41;-0.50;99.90
9179;DHT22;71287;48.414;11.478;2024-01-11T13:58:09;-0.50;99.90
9179;DHT22;71287;48.414;11.478;2024-01-11T14:00:38;-0.50;99.90
9179;DHT22;71287;48.414;11.478;2024-01-11T14:03:06;-0.50;99.90
9179;DHT22;71287;48.414;11.478;2024-01-11T14:05:34;-0.60;99.90
9179;DHT22;71287;48.414;11.478;2024-01-11T14:08:01;-0.60;99.90
9179;DHT22;71287;48.414;11.478;2024-01-11T14:10:31;-0.60;99.90
9179;DHT22;71287;48.414;11.478;2024-01-11T14:12:58;-0.70;99.90
9179;DHT22;71287;48.414;11.478;2024-01-11T14:15:25;-0.70;99.90
9179;DHT22;71287;48.414;11.478;2024-01-11T14:17:51;-0.80;99.90
9179;DHT22;71287;48.414;11.478;2024-01-11T14:20:20;-0.80;99.90
9179;DHT22;71287;48.414;11.478;2024-01-11T14:22:47;-0.80;99.90
9179;DHT22;71287;48.414;11.478;2024-01-11T14:25:15;-0.90;99.90
9179;DHT22;71287;48.414;11.478;2024-01-11T14:27:42;-1.00;99.90
9179;DHT22;71287;48.414;11.478;2024-01-11T14:30:10;-1.00;99.90
9179;DHT22;71287;48.414;11.478;2024-01-11T14:32:38;-1.00;99.90
9179;DHT22;71287;48.414;11.478;2024-01-11T14:35:07;-1.10;99.90
9179;DHT22;71287;48.414;11.478;2024-01-11T14:37:36;-1.10;99.90
9179;DHT22;71287;48.414;11.478;2024-01-11T14:40:04;-1.20;99.90
9179;DHT22;71287;48.414;11.478;2024-01-11T14:42:31;-1.20;99.90
9179;DHT22;71287;48.414;11.478;2024-01-11T14:44:59;-1.30;99.90
9179;DHT22;71287;48.414;11.478;2024-01-11T14:47:25;-1.30;99.90
9179;DHT22;71287;48.414;11.478;2024-01-11T14:49:52;-1.30;99.90
9179;DHT22;71287;48.414;11.478;2024-01-11T14:52:19;-1.40;99.90
9179;DHT22;71287;48.414;11.478;2024-01-11T14:54:47;-1.50;99.90
9179;DHT22;71287;48.414;11.478;2024-01-11T14:57:14;-1.50;99.90
9179;DHT22;71287;48.414;11.478;2024-01-11T14:59:41;-1.60;99.90
9179;DHT22;71287;48.414;11.478;2024-01-11T15:02:08;-1.60;99.90
9179;DHT22;71287;48.414;11.478;2024-01-11T15:04:34;-1.70;99.90
9179;DHT22;71287;48.414;11.478;2024-01-11T15:07:01;-1.70;99.90
9179;DHT22;71287;48.414;11.478;2024-01-11T15:09:28;-1.80;99.90
9179;DHT22;71287;48.414;11.478;2024-01-11T15:11:56;-1.90;99.90
9179;DHT22;71287;48.414;11.478;2024-01-11T15:14:23;-1.90;99.90
9179;DHT22;71287;48.414;11.478;2024-01-11T15:16:50;-2.00;99.90
9179;DHT22;71287;48.414;11.478;2024-01-11T15:19:17;-2.00;99.90
9179;DHT22;71287;48.414;11.478;2024-01-11T15:21:44;-2.10;99.90
9179;DHT22;71287;48.414;11.478;2024-01-11T15:24:10;-2.10;99.90
9179;DHT22;71287;48.414;11.478;2024-01-11T15:26:38;-2.20;99.90
9179;DHT22;71287;48.414;11.478;2024-01-11T15:29:06;-2.20;99.90
9179;DHT22;71287;48.414;11.478;2024-01-11T15:31:33;-2.20;99.90
9179;DHT22;71287;48.414;11.478;2024-01-11T15:34:01;-2.30;99.90